Time;durP1;ratioP1;P1;durP2;ratioP2;P2;SDS_P1;SDS_P2;PMS_P1;PMS_P2;Temp;Humidity;BMP_temperature;BMP_pressure;BME280_temperature;BME280_humidity;BME280_pressure;Samples;Min_cycle;Max_cycle;Signal;HPM_P1;HPM_P2
2021/08/10 00:02:05;;;;;;;3.60;2.50;;;17.20;82.90;;;;;;5052764;28;20021;-75
2021/08/10 00:04:31;;;;;;;4.18;2.50;;;17.20;82.70;;;;;;5052396;28;20077;-75
2021/08/10 00:06:56;;;;;;;3.65;2.63;;;17.20;82.70;;;;;;5051769;28;20352;-75
2021/08/10 00:09:22;;;;;;;3.95;2.90;;;17.20;82.70;;;;;;5053688;28;20021;-75
2021/08/10 00:11:47;;;;;;;4.75;2.60;;;17.10;82.80;;;;;;5052337;28;20033;-75
2021/08/10 00:14:13;;;;;;;3.65;2.22;;;17.10;82.80;;;;;;5052063;28;21509;-75
2021/08/10 00:16:38;;;;;;;4.80;2.70;;;17.10;82.80;;;;;;5052208;28;20025;-76
2021/08/10 00:19:04;;;;;;;4.68;3.10;;;17.10;82.90;;;;;;5052189;28;20029;-75
2021/08/10 00:21:29;;;;;;;4.40;3.20;;;17.10;83.00;;;;;;5051180;28;20025;-74
2021/08/10 00:23:55;;;;;;;3.25;2.67;;;17.00;83.20;;;;;;5051633;28;20391;-75
2021/08/10 00:26:21;;;;;;;3.80;2.17;;;17.00;83.20;;;;;;5052402;28;20083;-74
2021/08/10 00:28:46;;;;;;;4.93;2.97;;;17.00;83.10;;;;;;5051820;28;20558;-74
2021/08/10 00:31:12;;;;;;;4.57;2.90;;;17.00;83.10;;;;;;5051005;28;20044;-75
2021/08/10 00:33:37;;;;;;;3.53;2.53;;;17.00;83.20;;;;;;5051219;28;20051;-74
2021/08/10 00:36:03;;;;;;;4.47;2.80;;;17.00;83.20;;;;;;5051448;28;20020;-75
2021/08/10 00:38:29;;;;;;;3.80;2.60;;;17.00;83.10;;;;;;5053624;28;20029;-74
2021/08/10 00:40:56;;;;;;;3.38;2.70;;;16.90;83.10;;;;;;5052288;28;20067;-74
2021/08/10 00:43:31;;;;;;;2.90;2.25;;;16.90;83.30;;;;;;5050293;28;20032;-74
2021/08/10 00:45:57;;;;;;;2.85;2.50;;;16.90;83.10;;;;;;5051132;28;20029;-75
2021/08/10 00:48:22;;;;;;;4.63;3.00;;;17.00;83.10;;;;;;5051870;28;20032;-75
2021/08/10 00:50:48;;;;;;;3.15;2.30;;;16.90;83.20;;;;;;5050671;28;20499;-74
2021/08/10 00:53:14;;;;;;;3.53;2.20;;;16.90;83.20;;;;;;5051520;28;20119;-73
2021/08/10 00:55:40;;;;;;;4.10;2.83;;;16.90;83.20;;;;;;5051337;28;20028;-74
2021/08/10 00:58:07;;;;;;;3.20;2.40;;;16.90;83.20;;;;;;5051121;28;20033;-75
2021/08/10 01:00:32;;;;;;;3.85;2.38;;;16.90;83.30;;;;;;5050734;28;20033;-75
2021/08/10 01:02:58;;;;;;;3.05;2.10;;;16.90;83.30;;;;;;5042457;28;20029;-75
2021/08/10 01:05:28;;;;;;;3.50;2.30;;;16.90;83.10;;;;;;5046054;28;20024;-75
2021/08/10 01:08:00;;;;;;;2.50;2.30;;;16.90;83.00;;;;;;5048959;28;20578;-74
2021/08/10 01:10:36;;;;;;;3.05;2.25;;;16.90;83.00;;;;;;5044019;28;20029;-75
2021/08/10 01:13:21;;;;;;;2.92;2.30;;;16.90;83.00;;;;;;5050822;28;20156;-73
2021/08/10 01:15:56;;;;;;;3.17;2.50;;;16.90;83.20;;;;;;5050030;28;20419;-75
2021/08/10 01:18:29;;;;;;;3.65;2.22;;;16.90;83.20;;;;;;5048289;28;20087;-75
2021/08/10 01:21:11;;;;;;;4.50;2.70;;;16.80;83.20;;;;;;5043780;28;20020;-75
2021/08/10 01:23:37;;;;;;;3.03;2.03;;;16.80;83.20;;;;;;5049093;28;20033;-75
2021/08/10 01:26:26;;;;;;;3.72;2.67;;;16.90;83.20;;;;;;5047991;28;20425;-74
2021/08/10 01:29:16;;;;;;;4.15;3.17;;;16.80;83.20;;;;;;5035100;28;20037;-75
2021/08/10 01:31:43;;;;;;;2.95;2.05;;;16.80;83.50;;;;;;5049108;28;20120;-75
2021/08/10 01:34:18;;;;;;;2.83;2.17;;;16.80;83.50;;;;;;5044255;28;20044;-75
2021/08/10 01:36:45;;;;;;;4.82;3.33;;;16.80;83.30;;;;;;5050365;28;20037;-76
2021/08/10 01:39:12;;;;;;;5.07;2.90;;;16.80;83.40;;;;;;5049176;28;20047;-75
2021/08/10 01:41:39;;;;;;;5.95;2.70;;;16.80;83.60;;;;;;5047829;28;20029;-75
2021/08/10 01:44:05;;;;;;;4.13;2.90;;;16.80;83.50;;;;;;5050201;28;20024;-76
2021/08/10 01:46:32;;;;;;;3.70;2.72;;;16.80;83.60;;;;;;5050825;28;20025;-75
2021/08/10 01:48:59;;;;;;;5.35;3.00;;;16.70;83.60;;;;;;5045812;28;20032;-75
2021/08/10 01:51:28;;;;;;;3.00;2.47;;;16.80;83.60;;;;;;5050563;28;20060;-76
2021/08/10 01:53:58;;;;;;;5.75;3.30;;;16.80;83.50;;;;;;5049881;28;20694;-76
2021/08/10 01:56:25;;;;;;;4.88;3.30;;;16.80;83.70;;;;;;5049708;28;20471;-76
2021/08/10 01:58:53;;;;;;;5.40;3.42;;;16.70;83.70;;;;;;5049555;28;20025;-76
2021/08/10 02:01:20;;;;;;;4.18;2.85;;;16.70;83.80;;;;;;5050499;28;20029;-76
2021/08/10 02:03:45;;;;;;;3.47;2.60;;;16.70;83.90;;;;;;5047092;28;20024;-77
2021/08/10 02:06:17;;;;;;;3.70;2.65;;;16.70;83.90;;;;;;5049214;28;20108;-76
2021/08/10 02:08:43;;;;;;;5.33;3.30;;;16.70;83.80;;;;;;5049878;28;20593;-76
2021/08/10 02:11:11;;;;;;;3.75;2.72;;;16.70;83.80;;;;;;5049373;28;20124;-76
2021/08/10 02:13:37;;;;;;;2.92;2.17;;;16.70;83.80;;;;;;5049452;28;20073;-76
2021/08/10 02:16:05;;;;;;;5.88;2.70;;;16.80;83.70;;;;;;5049491;28;20037;-76
2021/08/10 02:18:30;;;;;;;4.55;2.60;;;16.90;83.60;;;;;;5049590;28;20021;-77
2021/08/10 02:20:58;;;;;;;4.80;2.58;;;16.80;83.40;;;;;;5045620;28;20036;-76
2021/08/10 02:23:25;;;;;;;3.42;1.98;;;16.90;83.40;;;;;;5047117;28;20467;-76
2021/08/10 02:25:52;;;;;;;6.22;3.25;;;16.90;83.20;;;;;;5046973;28;20029;-76
2021/08/10 02:28:19;;;;;;;2.10;1.90;;;16.90;83.20;;;;;;5049376;28;20041;-76
2021/08/10 02:30:53;;;;;;;4.20;3.05;;;16.90;83.20;;;;;;5048052;28;20017;-76
2021/08/10 02:33:21;;;;;;;3.83;2.78;;;16.90;83.10;;;;;;5046508;28;20094;-76
2021/08/10 02:35:52;;;;;;;6.65;3.40;;;16.80;83.10;;;;;;5044933;28;20068;-77
2021/08/10 02:38:19;;;;;;;6.97;3.20;;;16.80;83.30;;;;;;5048395;28;20099;-76
2021/08/10 02:40:47;;;;;;;3.42;2.78;;;16.70;83.60;;;;;;5044945;28;20031;-75
2021/08/10 02:43:14;;;;;;;3.72;2.50;;;16.70;83.80;;;;;;5050958;28;20032;-75
2021/08/10 02:45:39;;;;;;;4.85;3.08;;;16.70;83.80;;;;;;5048456;28;20033;-75
2021/08/10 02:48:05;;;;;;;4.10;2.90;;;16.70;83.70;;;;;;5049509;28;20028;-75
2021/08/10 02:50:32;;;;;;;2.85;2.10;;;16.70;83.80;;;;;;5048848;28;20426;-75
2021/08/10 02:52:58;;;;;;;4.47;2.88;;;16.70;83.70;;;;;;5049289;28;20029;-75
2021/08/10 02:55:24;;;;;;;5.70;3.10;;;16.70;83.70;;;;;;5052014;28;20029;-75
2021/08/10 02:57:55;;;;;;;3.70;2.40;;;16.70;83.70;;;;;;5054759;28;20304;-76
2021/08/10 03:00:21;;;;;;;4.97;2.92;;;16.70;83.80;;;;;;5044797;28;20040;-75
2021/08/10 03:02:51;;;;;;;3.70;2.67;;;16.60;83.90;;;;;;5058050;28;20535;-75
2021/08/10 03:05:27;;;;;;;5.00;3.15;;;16.70;83.90;;;;;;5057897;28;20029;-75
2021/08/10 03:07:59;;;;;;;4.05;2.65;;;16.60;84.00;;;;;;5055310;28;20074;-74
2021/08/10 03:10:27;;;;;;;3.43;2.20;;;16.60;84.00;;;;;;5054914;28;20021;-75
2021/08/10 03:12:55;;;;;;;3.72;2.90;;;16.60;83.90;;;;;;5056040;28;20037;-75
2021/08/10 03:15:23;;;;;;;2.92;2.03;;;16.60;83.90;;;;;;5055960;28;20063;-73
2021/08/10 03:17:52;;;;;;;3.55;2.75;;;16.60;83.90;;;;;;5053700;28;20044;-74
2021/08/10 03:20:20;;;;;;;3.03;2.20;;;16.60;83.70;;;;;;5054460;28;20468;-75
2021/08/10 03:22:47;;;;;;;3.58;2.60;;;16.60;83.70;;;;;;5055702;28;20021;-75
2021/08/10 03:25:15;;;;;;;4.30;3.38;;;16.60;83.70;;;;;;5055314;28;20033;-75
2021/08/10 03:27:42;;;;;;;5.43;3.15;;;16.60;83.80;;;;;;5055339;28;20017;-74
2021/08/10 03:30:09;;;;;;;4.43;2.80;;;16.50;84.00;;;;;;5055744;28;20025;-75
2021/08/10 03:32:35;;;;;;;3.58;2.30;;;16.50;84.10;;;;;;5050332;28;20033;-74
2021/08/10 03:35:02;;;;;;;5.43;3.00;;;16.50;84.10;;;;;;5054718;28;20029;-74
2021/08/10 03:37:30;;;;;;;6.68;3.33;;;16.50;84.00;;;;;;5050574;28;20395;-75
2021/08/10 03:39:56;;;;;;;4.68;3.13;;;16.50;84.20;;;;;;5057616;28;20096;-74
2021/08/10 03:42:22;;;;;;;5.03;2.60;;;16.40;84.30;;;;;;5056190;28;20045;-74
2021/08/10 03:44:49;;;;;;;3.00;2.35;;;16.40;84.40;;;;;;5055729;28;20029;-75
2021/08/10 03:47:16;;;;;;;5.32;3.42;;;16.40;84.40;;;;;;5054983;28;20037;-75
2021/08/10 03:49:45;;;;;;;3.78;2.55;;;16.40;84.30;;;;;;5054524;28;20029;-74
2021/08/10 03:52:14;;;;;;;5.15;3.10;;;16.40;84.30;;;;;;5051935;28;20036;-75
2021/08/10 03:54:41;;;;;;;3.70;2.08;;;16.40;84.40;;;;;;5044874;28;20021;-75
2021/08/10 03:57:13;;;;;;;4.43;3.03;;;16.40;84.30;;;;;;5055422;28;20021;-75
2021/08/10 03:59:39;;;;;;;3.53;2.75;;;16.40;84.20;;;;;;5054986;28;20090;-74
2021/08/10 04:02:04;;;;;;;4.72;2.53;;;16.40;84.40;;;;;;5046747;28;20110;-75
2021/08/10 04:04:30;;;;;;;3.38;2.47;;;16.40;84.40;;;;;;5048194;28;20056;-76
2021/08/10 04:06:57;;;;;;;4.68;2.65;;;16.40;84.40;;;;;;5046072;28;20040;-75
2021/08/10 04:09:23;;;;;;;3.35;2.30;;;16.40;84.30;;;;;;5051741;28;20072;-75
2021/08/10 04:11:49;;;;;;;3.67;2.30;;;16.40;84.30;;;;;;5049724;28;20044;-72
2021/08/10 04:14:16;;;;;;;5.07;2.65;;;16.40;84.30;;;;;;5046591;28;20480;-74
2021/08/10 04:16:51;;;;;;;2.60;1.95;;;16.30;84.20;;;;;;5051220;28;20475;-74
2021/08/10 04:19:19;;;;;;;7.10;3.17;;;16.40;84.30;;;;;;5061582;28;20033;-73
2021/08/10 04:21:45;;;;;;;5.85;2.85;;;16.40;84.30;;;;;;5047302;28;20066;-74
2021/08/10 04:24:10;;;;;;;3.17;2.05;;;16.30;84.30;;;;;;5049850;28;20036;-74
2021/08/10 04:26:36;;;;;;;3.67;2.30;;;16.30;84.30;;;;;;5051906;28;20025;-74
2021/08/10 04:29:02;;;;;;;4.20;2.10;;;16.30;84.30;;;;;;5049530;28;20021;-74
2021/08/10 04:31:27;;;;;;;4.63;2.40;;;16.30;84.20;;;;;;5050308;28;20033;-74
2021/08/10 04:33:53;;;;;;;3.35;2.30;;;16.30;84.20;;;;;;5047336;28;20036;-74
2021/08/10 04:36:18;;;;;;;2.65;2.20;;;16.30;84.30;;;;;;5045825;28;20025;-73
2021/08/10 04:38:44;;;;;;;3.08;2.22;;;16.30;84.20;;;;;;5051863;28;20063;-74
2021/08/10 04:41:10;;;;;;;3.58;2.10;;;16.40;84.10;;;;;;5050137;28;20036;-74
2021/08/10 04:43:35;;;;;;;3.65;2.05;;;16.40;84.10;;;;;;5046048;28;20021;-74
2021/08/10 04:46:01;;;;;;;3.90;2.15;;;16.40;83.90;;;;;;5051882;28;20536;-73
2021/08/10 04:48:26;;;;;;;3.05;2.00;;;16.40;83.90;;;;;;5049362;28;20031;-73
2021/08/10 04:50:52;;;;;;;3.45;2.17;;;16.40;83.80;;;;;;5052722;28;20035;-75
2021/08/10 04:53:17;;;;;;;4.00;2.10;;;16.40;83.80;;;;;;5047260;28;20377;-74
2021/08/10 04:55:43;;;;;;;3.63;2.00;;;16.40;83.90;;;;;;5041814;28;20029;-74
2021/08/10 04:58:09;;;;;;;2.80;1.90;;;16.40;83.90;;;;;;5051065;28;20094;-74
2021/08/10 05:00:34;;;;;;;3.20;2.22;;;16.40;83.70;;;;;;5051821;28;20242;-72
2021/08/10 05:03:00;;;;;;;3.10;2.08;;;16.40;83.70;;;;;;5052052;28;20467;-74
2021/08/10 05:05:25;;;;;;;2.55;1.90;;;16.40;83.60;;;;;;5047795;28;20033;-74
2021/08/10 05:07:51;;;;;;;4.50;2.38;;;16.50;83.60;;;;;;5049746;28;20476;-75
2021/08/10 05:10:16;;;;;;;4.03;2.50;;;16.50;83.50;;;;;;5046975;28;20025;-74
2021/08/10 05:12:42;;;;;;;2.60;1.83;;;16.50;83.50;;;;;;5047704;28;20049;-75
2021/08/10 05:15:08;;;;;;;3.30;2.17;;;16.60;83.50;;;;;;5049063;28;20027;-74
2021/08/10 05:17:33;;;;;;;2.95;2.10;;;16.60;83.20;;;;;;5048820;28;20028;-74
2021/08/10 05:19:59;;;;;;;3.83;2.20;;;16.60;83.20;;;;;;5045426;28;20108;-75
2021/08/10 05:22:25;;;;;;;4.25;2.10;;;16.60;83.10;;;;;;5051815;28;20056;-75
2021/08/10 05:24:51;;;;;;;4.40;2.10;;;16.60;83.10;;;;;;5050479;28;20116;-74
2021/08/10 05:27:17;;;;;;;3.08;2.10;;;16.70;83.10;;;;;;5045230;28;20025;-74
2021/08/10 05:29:45;;;;;;;4.15;2.45;;;16.70;83.10;;;;;;5047892;28;20028;-78
2021/08/10 05:32:11;;;;;;;3.03;2.20;;;16.70;83.10;;;;;;5045776;28;20496;-75
2021/08/10 05:34:38;;;;;;;8.57;2.95;;;16.70;83.00;;;;;;5050539;28;20100;-76
2021/08/10 05:37:07;;;;;;;2.70;1.90;;;16.70;82.80;;;;;;5045852;28;20032;-77
2021/08/10 05:39:33;;;;;;;4.32;2.13;;;16.70;82.80;;;;;;5046940;28;20021;-75
2021/08/10 05:41:58;;;;;;;3.70;1.88;;;16.80;83.00;;;;;;5045237;28;20043;-74
2021/08/10 05:44:24;;;;;;;4.68;1.92;;;17.00;82.50;;;;;;5047016;28;20051;-74
2021/08/10 05:46:49;;;;;;;3.03;2.30;;;17.30;82.20;;;;;;5045768;28;20102;-74
2021/08/10 05:49:15;;;;;;;2.55;2.03;;;17.90;80.80;;;;;;5046888;28;20021;-75
2021/08/10 05:51:41;;;;;;;2.95;1.67;;;18.70;79.10;;;;;;5049482;28;20045;-75
2021/08/10 05:54:07;;;;;;;2.20;1.80;;;19.40;77.00;;;;;;5043456;28;20079;-75
2021/08/10 05:56:33;;;;;;;3.72;1.92;;;20.20;75.10;;;;;;5047815;28;20028;-75
2021/08/10 05:58:59;;;;;;;4.57;2.63;;;20.80;73.00;;;;;;5043409;28;20381;-75
2021/08/10 06:01:24;;;;;;;3.08;2.10;;;21.30;70.60;;;;;;5041426;28;20042;-75
2021/08/10 06:03:50;;;;;;;4.57;2.05;;;21.70;69.20;;;;;;5034624;28;20139;-76
2021/08/10 06:06:15;;;;;;;2.55;1.88;;;22.10;68.00;;;;;;5045405;28;20442;-73
2021/08/10 06:08:41;;;;;;;3.33;1.85;;;22.40;67.00;;;;;;5044499;28;20044;-74
2021/08/10 06:11:07;;;;;;;4.00;2.03;;;22.90;65.70;;;;;;5045031;28;20024;-75
2021/08/10 06:13:35;;;;;;;5.72;2.30;;;23.10;64.70;;;;;;5044759;28;20747;-76
2021/08/10 06:16:01;;;;;;;4.32;2.10;;;22.30;64.70;;;;;;5041066;28;20033;-75
2021/08/10 06:18:26;;;;;;;3.08;1.83;;;22.00;66.10;;;;;;5046993;28;20028;-75
2021/08/10 06:20:52;;;;;;;4.95;3.03;;;21.90;66.40;;;;;;5035054;28;20020;-74
2021/08/10 06:23:17;;;;;;;3.15;1.83;;;21.60;66.30;;;;;;5046826;28;20112;-74
2021/08/10 06:25:44;;;;;;;4.05;2.50;;;22.20;66.20;;;;;;5044578;28;20029;-74
2021/08/10 06:28:10;;;;;;;4.00;2.13;;;22.00;65.30;;;;;;5046336;28;20060;-74
2021/08/10 06:30:35;;;;;;;5.35;2.83;;;21.40;66.30;;;;;;5048378;28;20075;-75
2021/08/10 06:33:01;;;;;;;3.30;2.20;;;21.00;67.50;;;;;;5042178;28;20519;-77
2021/08/10 06:35:27;;;;;;;2.45;2.15;;;21.00;68.80;;;;;;5043782;28;20444;-76
2021/08/10 06:37:52;;;;;;;4.22;2.30;;;21.40;67.90;;;;;;5044531;28;20035;-74
2021/08/10 06:40:18;;;;;;;2.45;1.98;;;21.00;68.10;;;;;;5040228;28;20033;-77
2021/08/10 06:42:43;;;;;;;4.90;2.13;;;20.30;69.60;;;;;;5040959;28;20029;-76
2021/08/10 06:45:12;;;;;;;3.83;1.98;;;19.80;71.30;;;;;;5044993;28;20040;-76
2021/08/10 06:47:37;;;;;;;3.97;2.20;;;19.50;72.70;;;;;;5042278;28;20032;-75
2021/08/10 06:50:03;;;;;;;3.90;1.92;;;19.30;73.70;;;;;;5045658;28;20033;-75
2021/08/10 06:52:29;;;;;;;2.75;1.90;;;19.20;74.40;;;;;;5039012;28;20045;-76
2021/08/10 06:54:54;;;;;;;3.03;2.00;;;19.00;74.70;;;;;;5041233;28;20124;-76
2021/08/10 06:57:19;;;;;;;3.47;2.30;;;18.90;75.30;;;;;;5044732;28;20029;-77
2021/08/10 06:59:45;;;;;;;3.85;2.28;;;18.80;75.70;;;;;;5039692;28;20385;-76
2021/08/10 07:02:11;;;;;;;4.30;2.80;;;18.90;75.80;;;;;;5047093;28;20032;-75
2021/08/10 07:04:37;;;;;;;4.68;2.42;;;18.90;75.70;;;;;;5038031;28;20549;-76
2021/08/10 07:07:03;;;;;;;3.90;2.60;;;18.90;76.60;;;;;;5034899;28;20025;-76
2021/08/10 07:09:29;;;;;;;3.80;2.80;;;18.90;75.90;;;;;;5041445;28;20071;-76
2021/08/10 07:11:55;;;;;;;6.97;3.15;;;18.80;76.00;;;;;;5043457;28;20562;-76
2021/08/10 07:14:20;;;;;;;4.55;2.80;;;18.70;76.10;;;;;;5045251;28;20036;-77
2021/08/10 07:16:46;;;;;;;4.60;3.00;;;18.70;76.40;;;;;;5033879;28;20171;-76
2021/08/10 07:19:13;;;;;;;5.25;3.20;;;18.70;76.50;;;;;;5038591;28;20511;-77
2021/08/10 07:21:39;;;;;;;4.30;2.50;;;18.60;76.60;;;;;;5032056;28;20057;-77
2021/08/10 07:24:05;;;;;;;2.92;2.30;;;18.70;76.70;;;;;;5039595;28;20076;-77
2021/08/10 07:26:32;;;;;;;4.15;3.08;;;18.90;76.40;;;;;;5037737;28;20040;-76
2021/08/10 07:28:58;;;;;;;4.97;3.65;;;19.00;76.00;;;;;;5039674;28;20135;-76
2021/08/10 07:31:24;;;;;;;4.53;2.88;;;19.00;75.70;;;;;;5040365;28;20028;-77
2021/08/10 07:33:50;;;;;;;5.90;3.03;;;19.00;75.80;;;;;;5049583;28;20040;-77
2021/08/10 07:36:16;;;;;;;5.22;3.30;;;19.00;75.80;;;;;;5048789;28;20364;-77
2021/08/10 07:38:42;;;;;;;5.05;3.08;;;19.10;75.80;;;;;;5041230;28;20021;-77
2021/08/10 07:41:08;;;;;;;6.13;3.53;;;19.00;75.70;;;;;;5040166;28;20025;-77
2021/08/10 07:43:33;;;;;;;3.30;2.67;;;19.00;75.80;;;;;;5036743;28;20017;-78
2021/08/10 07:45:59;;;;;;;5.13;3.25;;;19.30;75.70;;;;;;5038662;28;20114;-76
2021/08/10 07:48:25;;;;;;;3.95;2.65;;;19.90;74.00;;;;;;5040583;28;20132;-76
2021/08/10 07:50:50;;;;;;;4.68;2.95;;;19.70;74.10;;;;;;5043877;28;20056;-77
2021/08/10 07:53:19;;;;;;;5.18;3.00;;;19.60;74.30;;;;;;5045997;28;20029;-76
2021/08/10 07:55:47;;;;;;;3.40;2.72;;;19.50;74.70;;;;;;5039915;28;20050;-76
2021/08/10 07:58:13;;;;;;;5.40;3.00;;;19.50;75.00;;;;;;5053678;28;20471;-76
2021/08/10 08:00:38;;;;;;;5.10;3.45;;;19.40;75.10;;;;;;5048323;28;20023;-77
2021/08/10 08:03:04;;;;;;;4.13;2.55;;;19.30;75.10;;;;;;5043422;28;20032;-76
2021/08/10 08:05:30;;;;;;;4.20;2.40;;;19.20;75.30;;;;;;5053346;28;20048;-77
2021/08/10 08:07:57;;;;;;;4.63;3.03;;;19.30;75.60;;;;;;5035817;28;20109;-76
2021/08/10 08:10:23;;;;;;;4.03;2.60;;;19.60;75.30;;;;;;5033636;28;20044;-76
2021/08/10 08:12:48;;;;;;;4.53;3.00;;;19.90;74.60;;;;;;5034608;28;20480;-76
2021/08/10 08:15:14;;;;;;;3.90;2.13;;;20.30;73.90;;;;;;5048058;28;20044;-77
2021/08/10 08:17:40;;;;;;;4.55;3.10;;;20.40;73.40;;;;;;5049318;28;20021;-76
2021/08/10 08:20:06;;;;;;;5.65;3.17;;;20.50;72.70;;;;;;5051550;28;20024;-76
2021/08/10 08:22:31;;;;;;;4.05;2.65;;;20.50;72.30;;;;;;5052306;28;20043;-76
2021/08/10 08:24:57;;;;;;;3.33;2.17;;;20.50;72.30;;;;;;5044910;28;20096;-75
2021/08/10 08:27:23;;;;;;;4.32;2.70;;;20.50;72.50;;;;;;5048205;28;20021;-76
2021/08/10 08:29:48;;;;;;;4.18;2.80;;;20.40;72.60;;;;;;5051630;28;20588;-75
2021/08/10 08:32:14;;;;;;;6.03;2.95;;;20.50;72.60;;;;;;5052148;28;20044;-76
2021/08/10 08:34:39;;;;;;;5.72;3.08;;;20.50;72.70;;;;;;5052268;28;20483;-76
2021/08/10 08:37:05;;;;;;;3.80;2.80;;;20.60;72.30;;;;;;5048135;28;20024;-76
2021/08/10 08:39:31;;;;;;;4.07;2.60;;;20.60;72.10;;;;;;5046695;28;20032;-74
2021/08/10 08:42:00;;;;;;;6.40;3.10;;;20.70;72.10;;;;;;5049735;28;20032;-76
2021/08/10 08:44:26;;;;;;;7.05;3.58;;;20.90;71.80;;;;;;5041039;28;20388;-76
2021/08/10 08:46:54;;;;;;;5.47;2.70;;;20.80;70.50;;;;;;5049418;28;20032;-76
2021/08/10 08:49:23;;;;;;;4.85;2.28;;;20.90;70.50;;;;;;5042933;28;20473;-75
2021/08/10 08:51:49;;;;;;;5.97;2.53;;;20.90;70.40;;;;;;5045342;28;20500;-77
2021/08/10 08:54:15;;;;;;;3.47;2.05;;;21.10;70.30;;;;;;5046918;28;20496;-78
2021/08/10 08:56:41;;;;;;;2.58;1.70;;;21.30;70.10;;;;;;5050546;28;20139;-79
2021/08/10 08:59:07;;;;;;;2.70;1.65;;;21.30;69.80;;;;;;5048633;28;20100;-78
2021/08/10 09:01:33;;;;;;;4.18;2.42;;;21.40;69.70;;;;;;5041184;28;20037;-78
2021/08/10 09:03:58;;;;;;;3.78;2.22;;;21.30;69.50;;;;;;5049793;28;20104;-77
2021/08/10 09:06:24;;;;;;;2.50;1.90;;;21.30;69.50;;;;;;5039005;28;21041;-77
2021/08/10 09:08:55;;;;;;;3.65;2.00;;;21.40;69.30;;;;;;5050675;28;20033;-76
2021/08/10 09:11:24;;;;;;;2.70;1.67;;;21.40;69.30;;;;;;5051099;28;20033;-77
2021/08/10 09:14:02;;;;;;;4.55;1.90;;;21.30;69.30;;;;;;5051050;28;20387;-76
2021/08/10 09:16:28;;;;;;;3.20;2.10;;;21.30;69.10;;;;;;5050512;28;20071;-77
2021/08/10 09:18:54;;;;;;;3.67;2.28;;;21.50;68.50;;;;;;5040924;28;20037;-77
2021/08/10 09:21:22;;;;;;;3.10;2.08;;;21.40;66.50;;;;;;5046172;28;20031;-77
2021/08/10 09:23:51;;;;;;;3.33;1.80;;;21.30;67.00;;;;;;5045153;28;20086;-77
2021/08/10 09:26:18;;;;;;;2.72;1.75;;;21.20;67.40;;;;;;5044398;28;20026;-78
2021/08/10 09:28:44;;;;;;;3.42;1.70;;;21.10;67.70;;;;;;5040355;28;20025;-78
2021/08/10 09:31:34;;;;;;;3.67;1.80;;;21.10;67.80;;;;;;5032500;28;20053;-80
2021/08/10 09:34:21;;;;;;;2.85;1.85;;;21.00;67.70;;;;;;5045188;28;20033;-79
2021/08/10 09:36:47;;;;;;;2.97;1.65;;;20.80;68.20;;;;;;5046350;28;20104;-79
2021/08/10 09:39:13;;;;;;;2.67;1.38;;;20.80;68.60;;;;;;5048545;28;20025;-77
2021/08/10 09:41:40;;;;;;;3.50;2.08;;;20.90;68.80;;;;;;5043160;28;20028;-77
2021/08/10 09:44:11;;;;;;;2.20;1.70;;;20.80;68.50;;;;;;5034580;28;20111;-77
2021/08/10 09:46:37;;;;;;;3.88;2.10;;;20.80;68.90;;;;;;5043158;28;20045;-76
2021/08/10 09:49:06;;;;;;;3.25;2.15;;;20.90;68.60;;;;;;5045957;28;20017;-76
2021/08/10 09:51:32;;;;;;;2.63;1.52;;;20.80;68.60;;;;;;5045854;28;20028;-75
2021/08/10 09:54:09;;;;;;;1.73;1.30;;;20.90;68.60;;;;;;5041608;28;20120;-75
2021/08/10 09:56:53;;;;;;;2.05;1.60;;;21.10;68.70;;;;;;5037899;28;20033;-75
2021/08/10 09:59:27;;;;;;;2.95;1.90;;;21.10;68.60;;;;;;5046073;28;20110;-75
2021/08/10 10:01:55;;;;;;;3.65;2.08;;;21.00;68.60;;;;;;5041983;28;20419;-75
2021/08/10 10:04:28;;;;;;;2.50;1.70;;;20.90;68.80;;;;;;5049211;28;20088;-75
2021/08/10 10:07:08;;;;;;;2.40;1.50;;;20.90;69.40;;;;;;5046628;28;20032;-76
2021/08/10 10:09:34;;;;;;;2.58;1.80;;;20.90;69.60;;;;;;5035369;28;20025;-75
2021/08/10 10:12:01;;;;;;;3.53;1.80;;;20.80;70.00;;;;;;5044687;28;20040;-76
2021/08/10 10:14:28;;;;;;;1.95;1.40;;;20.90;70.20;;;;;;5041280;28;20017;-76
2021/08/10 10:16:57;;;;;;;2.65;1.67;;;21.00;70.30;;;;;;5042319;28;20021;-76
2021/08/10 10:19:22;;;;;;;1.60;1.50;;;21.10;70.20;;;;;;5043554;28;20044;-75
2021/08/10 10:21:57;;;;;;;2.25;1.50;;;21.20;70.00;;;;;;5040993;28;20028;-74
2021/08/10 10:24:24;;;;;;;2.38;1.40;;;21.20;69.80;;;;;;5045808;28;20379;-75
2021/08/10 10:27:02;;;;;;;2.75;1.73;;;21.20;69.90;;;;;;5041368;28;20068;-75
2021/08/10 10:29:28;;;;;;;2.85;1.45;;;21.10;69.70;;;;;;5043706;28;20040;-75
2021/08/10 10:31:54;;;;;;;1.73;1.30;;;21.00;69.70;;;;;;5042764;28;20037;-75
2021/08/10 10:34:20;;;;;;;2.00;1.40;;;20.80;69.60;;;;;;5039495;28;20431;-75
2021/08/10 10:36:47;;;;;;;2.47;1.58;;;20.80;69.70;;;;;;5041474;28;20066;-75
2021/08/10 10:39:40;;;;;;;2.00;1.25;;;20.70;69.60;;;;;;5048283;28;20061;-75
2021/08/10 10:42:11;;;;;;;2.42;1.40;;;20.60;69.70;;;;;;5041245;28;20129;-76
2021/08/10 10:44:41;;;;;;;2.17;1.40;;;20.70;69.80;;;;;;5043727;28;20018;-76
2021/08/10 10:47:25;;;;;;;3.80;1.50;;;20.80;69.50;;;;;;5046873;28;20040;-76
2021/08/10 10:50:12;;;;;;;4.07;1.75;;;20.90;69.40;;;;;;5044565;28;20066;-75
2021/08/10 10:52:37;;;;;;;3.55;2.33;;;21.20;69.00;;;;;;5062960;28;20451;-76
2021/08/10 10:55:05;;;;;;;3.60;2.05;;;21.30;68.00;;;;;;5042206;28;20025;-76
2021/08/10 10:57:31;;;;;;;5.13;2.33;;;21.40;67.30;;;;;;5044242;28;20025;-75
2021/08/10 11:00:03;;;;;;;3.55;2.00;;;21.50;66.20;;;;;;5045984;28;20460;-76
2021/08/10 11:02:28;;;;;;;;;;;21.50;65.80;;;;;;5037810;28;20048;-76
2021/08/10 11:05:06;;;;;;;3.15;1.13;;;21.60;66.10;;;;;;5042286;28;19909;-76
2021/08/10 11:07:36;;;;;;;3.92;2.10;;;21.90;66.20;;;;;;5037088;28;20048;-75
2021/08/10 11:10:06;;;;;;;2.00;1.48;;;22.00;65.20;;;;;;5041800;28;20510;-75
2021/08/10 11:12:46;;;;;;;3.97;1.75;;;22.20;65.10;;;;;;5040772;28;20040;-76
2021/08/10 11:15:22;;;;;;;3.35;1.90;;;22.20;64.40;;;;;;5042952;28;20112;-76
2021/08/10 11:18:11;;;;;;;2.63;1.63;;;22.20;64.20;;;;;;5047099;28;20017;-75
2021/08/10 11:20:42;;;;;;;4.57;2.20;;;22.30;64.00;;;;;;5044394;28;20029;-75
2021/08/10 11:23:23;;;;;;;3.38;2.03;;;22.30;63.10;;;;;;5053406;28;20352;-76
2021/08/10 11:25:53;;;;;;;3.63;2.27;;;22.30;62.90;;;;;;5044249;28;20039;-76
2021/08/10 11:28:55;;;;;;;3.30;1.80;;;22.40;62.80;;;;;;5037711;28;20076;-77
2021/08/10 11:31:53;;;;;;;3.20;1.88;;;22.50;62.60;;;;;;5037902;28;20048;-76
2021/08/10 11:34:34;;;;;;;5.07;2.30;;;22.50;62.20;;;;;;5034784;28;20044;-76
2021/08/10 11:37:20;;;;;;;2.10;1.75;;;22.50;61.70;;;;;;5050839;28;20021;-75
2021/08/10 11:40:11;;;;;;;3.60;1.90;;;22.50;61.80;;;;;;5042438;28;20017;-76
2021/08/10 11:42:37;;;;;;;3.92;2.10;;;22.50;62.00;;;;;;5044853;28;20430;-75
2021/08/10 11:45:04;;;;;;;3.88;2.15;;;22.40;61.70;;;;;;5047418;28;20079;-76
2021/08/10 11:47:30;;;;;;;3.20;2.17;;;22.60;61.90;;;;;;5047866;28;20029;-76
2021/08/10 11:49:55;;;;;;;3.20;1.90;;;22.60;61.50;;;;;;5045370;28;20029;-76
2021/08/10 11:52:22;;;;;;;2.75;1.90;;;22.80;61.20;;;;;;5035908;28;20037;-77
2021/08/10 11:54:58;;;;;;;3.22;1.60;;;22.80;61.10;;;;;;5049192;28;20013;-78
2021/08/10 11:57:24;;;;;;;3.00;2.08;;;22.90;61.20;;;;;;5045893;28;20028;-76
2021/08/10 11:59:51;;;;;;;3.92;2.20;;;23.10;61.30;;;;;;5050393;28;20020;-77
2021/08/10 12:02:17;;;;;;;3.72;2.17;;;23.20;60.50;;;;;;5049744;28;20021;-78
2021/08/10 12:04:42;;;;;;;5.43;2.17;;;23.30;60.60;;;;;;5051161;28;20016;-76
2021/08/10 12:07:08;;;;;;;2.63;1.63;;;23.40;60.40;;;;;;5046992;28;20029;-77
2021/08/10 12:09:35;;;;;;;1.95;1.23;;;23.50;60.60;;;;;;5045937;28;20013;-77
2021/08/10 12:12:03;;;;;;;3.88;1.90;;;23.70;60.60;;;;;;5041779;28;20491;-77
2021/08/10 12:14:31;;;;;;;4.53;1.88;;;23.80;59.90;;;;;;5050550;28;20388;-76
2021/08/10 12:16:59;;;;;;;2.75;1.90;;;23.90;59.60;;;;;;5051812;28;20024;-75
2021/08/10 12:19:39;;;;;;;3.13;1.70;;;23.80;59.00;;;;;;5035567;28;20025;-77
2021/08/10 12:22:09;;;;;;;4.25;2.20;;;24.00;59.10;;;;;;5046597;28;20088;-77
2021/08/10 12:24:38;;;;;;;3.15;1.90;;;23.90;58.00;;;;;;5044701;28;20158;-77
2021/08/10 12:27:05;;;;;;;2.90;1.77;;;23.90;57.50;;;;;;5042450;28;20082;-77
2021/08/10 12:29:38;;;;;;;2.53;1.60;;;23.90;57.50;;;;;;5053289;28;20376;-77
2021/08/10 12:32:06;;;;;;;3.83;1.83;;;24.00;57.40;;;;;;5053638;28;20047;-77
2021/08/10 12:34:37;;;;;;;3.45;1.77;;;24.10;57.10;;;;;;5039785;28;20067;-78
2021/08/10 12:37:04;;;;;;;4.43;1.83;;;24.10;57.10;;;;;;5048652;28;20503;-77
2021/08/10 12:39:31;;;;;;;3.22;1.70;;;24.10;56.90;;;;;;5052933;28;20437;-77
2021/08/10 12:42:00;;;;;;;3.97;1.60;;;24.20;56.80;;;;;;5037070;28;20029;-77
2021/08/10 12:44:28;;;;;;;2.45;1.70;;;24.20;56.80;;;;;;5046288;28;20468;-77
2021/08/10 12:46:58;;;;;;;3.15;1.90;;;24.30;56.70;;;;;;5037437;28;20020;-80
2021/08/10 12:49:36;;;;;;;4.45;2.17;;;24.40;56.30;;;;;;5048824;28;20468;-80
2021/08/10 12:52:07;;;;;;;4.45;2.70;;;24.40;56.00;;;;;;5045903;28;20071;-85
2021/08/10 12:54:39;;;;;;;2.97;1.80;;;24.50;55.30;;;;;;5043515;28;20048;-84